Ocean Fresh — LAEZ7 — position and weather

sailwx.info

Track history (hours):
 
Tides and Currents Weather Stations Pressure Air Temp Water Temp Dewpoint Dewpoint Depression Visibility Wind Speed Wind Dir Waves Ship Positions

Ocean Fresh

Last reported at 2017-Jul-20 03:12 UTC. Time now 2017-Jul-28 06:52 UTC.
Position N 26°55' W 015°34'.
Warning: this ship's position is 8 days out of date.

; draft 6 m.

Type: Other ship. MMSI: 259758000.

Date/timePositionNaut miles runAvg speedWind from/ knotsBaromVisibWave heightAir tempDewpointWater temp
2017-Jul-20 03:12N 26°55' W 015°34'11 9.9
2017-Jul-20 02:08N 27°05' W 015°31'110.0
2017-Jul-20 01:59N 27°07' W 015°30'610.4
2017-Jul-20 01:26N 27°12' W 015°28'610.6
2017-Jul-20 00:52N 27°18' W 015°26'410.5
2017-Jul-20 00:30N 27°21' W 015°25'510.3
2017-Jul-19 23:59N 27°27' W 015°23'1110.0
2017-Jul-19 22:55N 27°37' W 015°20'4 9.6
2017-Jul-19 22:30N 27°41' W 015°19'5 9.6
2017-Jul-19 22:00N 27°45' W 015°17'5 9.9
2017-Jul-19 21:30N 27°50' W 015°17'510.0
2017-Jul-19 21:00N 27°55' W 015°17'5 9.9
2017-Jul-19 20:30N 27°60' W 015°19'5 9.5
2017-Jul-19 20:00N 28°04' W 015°21'4 8.2
2017-Jul-19 19:30N 28°07' W 015°24'1 2.8
2017-Jul-19 19:00N 28°08' W 015°25'0 0.0
2017-Jul-19 18:30N 28°08' W 015°25'0 0.0
2017-Jul-19 18:00N 28°08' W 015°25'0 0.0
2017-Jul-19 17:30N 28°08' W 015°25'0 0.0
2017-Jul-19 16:48N 28°08' W 015°25'0 0.0
2017-Jul-19 16:30N 28°08' W 015°25'0 0.0
2017-Jul-19 15:45N 28°08' W 015°25'0 0.0
2017-Jul-19 15:30N 28°08' W 015°25'0 0.0
2017-Jul-19 15:00N 28°08' W 015°25'0 0.0
2017-Jul-19 14:21N 28°08' W 015°25'0 0.0
2017-Jul-19 13:51N 28°08' W 015°25'0 0.0
2017-Jul-19 13:18N 28°08' W 015°25'0 0.0
2017-Jul-19 12:39N 28°08' W 015°25'0 0.0
2017-Jul-19 12:24N 28°08' W 015°25'0 0.0
2017-Jul-19 11:54N 28°08' W 015°25'0 0.0
2017-Jul-19 11:24N 28°08' W 015°25'0 0.0
2017-Jul-19 10:51N 28°08' W 015°25'0 0.0
2017-Jul-19 10:24N 28°08' W 015°25'0 0.0
2017-Jul-19 09:57N 28°08' W 015°25'0 0.0
2017-Jul-19 09:26N 28°08' W 015°25'0 0.0
2017-Jul-19 08:53N 28°08' W 015°25'0 0.0
2017-Jul-19 08:23N 28°08' W 015°25'0 0.0
2017-Jul-19 07:56N 28°08' W 015°25'0 0.0
2017-Jul-19 07:11N 28°08' W 015°25'0 0.0
2017-Jul-19 07:00N 28°08' W 015°25'0 0.0
2017-Jul-19 06:29N 28°08' W 015°25'0 0.0
2017-Jul-19 06:00N 28°08' W 015°25'0 0.0
2017-Jul-19 05:29N 28°08' W 015°25'0 0.0
2017-Jul-19 04:59N 28°08' W 015°25'0 0.0
2017-Jul-19 04:29N 28°08' W 015°25'0 0.0
2017-Jul-19 03:59N 28°08' W 015°25'0 0.0
2017-Jul-19 03:29N 28°08' W 015°25'0 0.0
2017-Jul-19 02:59N 28°08' W 015°25'0 0.0
2017-Jul-19 02:29N 28°08' W 015°25'0 0.0
2017-Jul-19 01:59N 28°08' W 015°25'0 0.0
2017-Jul-19 01:29N 28°08' W 015°25'0 0.0
2017-Jul-19 00:59N 28°08' W 015°25'0 0.0
2017-Jul-19 00:20N 28°08' W 015°25'0 0.0
2017-Jul-18 23:50N 28°08' W 015°25'0 0.0
2017-Jul-18 23:20N 28°08' W 015°25'0 0.0
2017-Jul-18 22:50N 28°08' W 015°25'0 0.0
2017-Jul-18 22:17N 28°08' W 015°25'0 0.0
2017-Jul-18 21:53N 28°08' W 015°25'0 0.0
2017-Jul-18 21:23N 28°08' W 015°25'0 0.0
2017-Jul-18 20:50N 28°08' W 015°25'0 0.0
2017-Jul-18 20:23N 28°08' W 015°25'0 0.0
2017-Jul-18 19:53N 28°08' W 015°25'0 0.0
2017-Jul-18 19:26N 28°08' W 015°25'0 0.0
2017-Jul-18 18:53N 28°08' W 015°25'0 0.0
2017-Jul-18 17:56N 28°08' W 015°25'0 0.0
2017-Jul-18 17:26N 28°08' W 015°25'0 0.0
2017-Jul-18 16:59N 28°08' W 015°25'0 0.0
2017-Jul-18 16:29N 28°08' W 015°25'0 0.0
2017-Jul-18 15:56N 28°08' W 015°25'0 0.0
2017-Jul-18 15:29N 28°08' W 015°25'0 0.0
2017-Jul-18 14:59N 28°08' W 015°25'0 0.0
2017-Jul-18 13:56N 28°08' W 015°25'0 0.0
2017-Jul-18 13:29N 28°08' W 015°25'0 0.0
2017-Jul-18 12:59N 28°08' W 015°25'0 0.0
2017-Jul-18 12:29N 28°08' W 015°25'0 0.0
2017-Jul-18 11:59N 28°08' W 015°25'0 0.0
2017-Jul-18 11:29N 28°08' W 015°25'0 0.0
2017-Jul-18 10:59N 28°08' W 015°25'0 0.0
2017-Jul-18 10:29N 28°08' W 015°25'0 0.0
2017-Jul-18 09:50N 28°08' W 015°25'0 0.0
2017-Jul-18 09:20N 28°08' W 015°25'0 0.0
2017-Jul-18 08:50N 28°08' W 015°25'0 0.0
2017-Jul-18 08:23N 28°08' W 015°25'0 0.0
2017-Jul-18 07:53N 28°08' W 015°25'0 0.0
2017-Jul-18 07:23N 28°08' W 015°25'0 0.0
2017-Jul-18 06:53N 28°08' W 015°25'0 0.0
2017-Jul-18 06:23N 28°08' W 015°25'0 0.0
2017-Jul-18 05:53N 28°08' W 015°25'0 0.0
2017-Jul-18 05:26N 28°08' W 015°25'0 0.0
2017-Jul-18 04:50N 28°08' W 015°25'0 0.0
2017-Jul-18 04:26N 28°08' W 015°25'0 0.0
2017-Jul-18 03:56N 28°08' W 015°25'0 0.0
2017-Jul-18 03:26N 28°08' W 015°25'0 0.0
2017-Jul-18 02:56N 28°08' W 015°25'0 0.0
2017-Jul-18 02:29N 28°08' W 015°25'0 0.0
2017-Jul-18 01:59N 28°08' W 015°25'0 0.0
2017-Jul-18 01:29N 28°08' W 015°25'0 0.0
2017-Jul-18 00:59N 28°08' W 015°25'0 0.0
2017-Jul-18 00:29N 28°08' W 015°25'0 0.0
2017-Jul-17 23:59N 28°08' W 015°25'0 0.0
2017-Jul-17 23:29N 28°08' W 015°25'0 0.0
2017-Jul-17 22:59N 28°08' W 015°25'0 0.0
2017-Jul-17 22:29N 28°08' W 015°25'0 0.0
2017-Jul-17 21:59N 28°08' W 015°25'0 0.0
2017-Jul-17 21:17N 28°08' W 015°25'0 0.0
2017-Jul-17 20:59N 28°08' W 015°25'0 0.0
2017-Jul-17 20:29N 28°08' W 015°25'0 0.0
2017-Jul-17 19:59N 28°08' W 015°25'0 0.0
2017-Jul-17 19:20N 28°08' W 015°25'0 0.0
2017-Jul-17 18:50N 28°08' W 015°25'0 0.0
2017-Jul-17 18:20N 28°08' W 015°25'0 0.0
2017-Jul-17 17:53N 28°08' W 015°25'0 0.0
2017-Jul-17 17:20N 28°08' W 015°25'0 0.0
2017-Jul-17 16:53N 28°08' W 015°25'0 0.0
2017-Jul-17 16:23N 28°08' W 015°25'0 0.0
2017-Jul-17 15:38N 28°08' W 015°25'0 0.0
2017-Jul-17 15:23N 28°08' W 015°25'0 0.0
2017-Jul-17 14:56N 28°08' W 015°25'0 0.0
2017-Jul-17 14:26N 28°08' W 015°25'0 0.0
2017-Jul-17 13:56N 28°08' W 015°25'0 0.0
2017-Jul-17 13:23N 28°08' W 015°25'0 0.0
2017-Jul-17 12:56N 28°08' W 015°25'0 0.0
2017-Jul-17 12:29N 28°08' W 015°25'0 0.0
2017-Jul-17 11:59N 28°08' W 015°25'0 0.0
2017-Jul-17 11:30N 28°08' W 015°25'1 2.6
2017-Jul-17 11:00N 28°07' W 015°24'3 5.5
2017-Jul-17 10:30N 28°05' W 015°22'3 5.9
2017-Jul-17 10:00N 28°03' W 015°21'3 6.2
2017-Jul-17 09:30N 27°60' W 015°19'3 6.0
2017-Jul-17 09:00N 27°57' W 015°17'3 5.8
2017-Jul-17 08:28N 27°54' W 015°17'3 5.9
2017-Jul-17 07:59N 27°51' W 015°17'3 5.8
2017-Jul-17 07:30N 27°49' W 015°17'5 5.7
2017-Jul-17 06:41N 27°44' W 015°18'2 6.1
2017-Jul-17 06:17N 27°42' W 015°19'2 6.2
2017-Jul-17 05:56N 27°40' W 015°19'3 6.0
2017-Jul-17 05:28N 27°37' W 015°20'3 5.6
2017-Jul-17 04:55N 27°34' W 015°21'3 5.5
2017-Jul-17 04:27N 27°31' W 015°21'3 5.3
2017-Jul-17 03:52N 27°28' W 015°23'2 5.2
2017-Jul-17 03:30N 27°27' W 015°24'3 5.6
2017-Jul-17 03:00N 27°24' W 015°25'3 5.8
2017-Jul-17 02:27N 27°21' W 015°26'3 5.9
2017-Jul-17 01:59N 27°18' W 015°26'3 6.1
2017-Jul-17 01:30N 27°16' W 015°27'9 6.2
2017-Jul-17 00:01N 27°07' W 015°30'2 6.4
2017-Jul-16 23:42N 27°05' W 015°31'  
Track history (hours):
 
Tides and Currents Weather Stations Pressure Air Temp Water Temp Dewpoint Dewpoint Depression Visibility Wind Speed Wind Dir Waves Ship Positions

Ocean Fresh

Last reported at 2017-Jul-20 03:12 UTC. Time now 2017-Jul-28 06:52 UTC.
Position N 26°55' W 015°34'.
Warning: this ship's position is 8 days out of date.

; draft 6 m.

Type: Other ship. MMSI: 259758000.

Date/timePositionNaut miles runAvg speedWind from/ knotsBaromVisibWave heightAir tempDewpointWater temp
2017-Jul-20 03:12N 26°55' W 015°34'11 9.9
2017-Jul-20 02:08N 27°05' W 015°31'110.0
2017-Jul-20 01:59N 27°07' W 015°30'610.4
2017-Jul-20 01:26N 27°12' W 015°28'610.6
2017-Jul-20 00:52N 27°18' W 015°26'410.5
2017-Jul-20 00:30N 27°21' W 015°25'510.3
2017-Jul-19 23:59N 27°27' W 015°23'1110.0
2017-Jul-19 22:55N 27°37' W 015°20'4 9.6
2017-Jul-19 22:30N 27°41' W 015°19'5 9.6
2017-Jul-19 22:00N 27°45' W 015°17'5 9.9
2017-Jul-19 21:30N 27°50' W 015°17'510.0
2017-Jul-19 21:00N 27°55' W 015°17'5 9.9
2017-Jul-19 20:30N 27°60' W 015°19'5 9.5
2017-Jul-19 20:00N 28°04' W 015°21'4 8.2
2017-Jul-19 19:30N 28°07' W 015°24'1 2.8
2017-Jul-19 19:00N 28°08' W 015°25'0 0.0
2017-Jul-19 18:30N 28°08' W 015°25'0 0.0
2017-Jul-19 18:00N 28°08' W 015°25'0 0.0
2017-Jul-19 17:30N 28°08' W 015°25'0 0.0
2017-Jul-19 16:48N 28°08' W 015°25'0 0.0
2017-Jul-19 16:30N 28°08' W 015°25'0 0.0
2017-Jul-19 15:45N 28°08' W 015°25'0 0.0
2017-Jul-19 15:30N 28°08' W 015°25'0 0.0
2017-Jul-19 15:00N 28°08' W 015°25'0 0.0
2017-Jul-19 14:21N 28°08' W 015°25'0 0.0
2017-Jul-19 13:51N 28°08' W 015°25'0 0.0
2017-Jul-19 13:18N 28°08' W 015°25'0 0.0
2017-Jul-19 12:39N 28°08' W 015°25'0 0.0
2017-Jul-19 12:24N 28°08' W 015°25'0 0.0
2017-Jul-19 11:54N 28°08' W 015°25'0 0.0
2017-Jul-19 11:24N 28°08' W 015°25'0 0.0
2017-Jul-19 10:51N 28°08' W 015°25'0 0.0
2017-Jul-19 10:24N 28°08' W 015°25'0 0.0
2017-Jul-19 09:57N 28°08' W 015°25'0 0.0
2017-Jul-19 09:26N 28°08' W 015°25'0 0.0
2017-Jul-19 08:53N 28°08' W 015°25'0 0.0
2017-Jul-19 08:23N 28°08' W 015°25'0 0.0
2017-Jul-19 07:56N 28°08' W 015°25'0 0.0
2017-Jul-19 07:11N 28°08' W 015°25'0 0.0
2017-Jul-19 07:00N 28°08' W 015°25'0 0.0
2017-Jul-19 06:29N 28°08' W 015°25'0 0.0
2017-Jul-19 06:00N 28°08' W 015°25'0 0.0
2017-Jul-19 05:29N 28°08' W 015°25'0 0.0
2017-Jul-19 04:59N 28°08' W 015°25'0 0.0
2017-Jul-19 04:29N 28°08' W 015°25'0 0.0
2017-Jul-19 03:59N 28°08' W 015°25'0 0.0
2017-Jul-19 03:29N 28°08' W 015°25'0 0.0
2017-Jul-19 02:59N 28°08' W 015°25'0 0.0
2017-Jul-19 02:29N 28°08' W 015°25'0 0.0
2017-Jul-19 01:59N 28°08' W 015°25'0 0.0
2017-Jul-19 01:29N 28°08' W 015°25'0 0.0
2017-Jul-19 00:59N 28°08' W 015°25'0 0.0
2017-Jul-19 00:20N 28°08' W 015°25'0 0.0
2017-Jul-18 23:50N 28°08' W 015°25'0 0.0
2017-Jul-18 23:20N 28°08' W 015°25'0 0.0
2017-Jul-18 22:50N 28°08' W 015°25'0 0.0
2017-Jul-18 22:17N 28°08' W 015°25'0 0.0
2017-Jul-18 21:53N 28°08' W 015°25'0 0.0
2017-Jul-18 21:23N 28°08' W 015°25'0 0.0
2017-Jul-18 20:50N 28°08' W 015°25'0 0.0
2017-Jul-18 20:23N 28°08' W 015°25'0 0.0
2017-Jul-18 19:53N 28°08' W 015°25'0 0.0
2017-Jul-18 19:26N 28°08' W 015°25'0 0.0
2017-Jul-18 18:53N 28°08' W 015°25'0 0.0
2017-Jul-18 17:56N 28°08' W 015°25'0 0.0
2017-Jul-18 17:26N 28°08' W 015°25'0 0.0
2017-Jul-18 16:59N 28°08' W 015°25'0 0.0
2017-Jul-18 16:29N 28°08' W 015°25'0 0.0
2017-Jul-18 15:56N 28°08' W 015°25'0 0.0
2017-Jul-18 15:29N 28°08' W 015°25'0 0.0
2017-Jul-18 14:59N 28°08' W 015°25'0 0.0
2017-Jul-18 13:56N 28°08' W 015°25'0 0.0
2017-Jul-18 13:29N 28°08' W 015°25'0 0.0
2017-Jul-18 12:59N 28°08' W 015°25'0 0.0
2017-Jul-18 12:29N 28°08' W 015°25'0 0.0
2017-Jul-18 11:59N 28°08' W 015°25'0 0.0
2017-Jul-18 11:29N 28°08' W 015°25'0 0.0
2017-Jul-18 10:59N 28°08' W 015°25'0 0.0
2017-Jul-18 10:29N 28°08' W 015°25'0 0.0
2017-Jul-18 09:50N 28°08' W 015°25'0 0.0
2017-Jul-18 09:20N 28°08' W 015°25'0 0.0
2017-Jul-18 08:50N 28°08' W 015°25'0 0.0
2017-Jul-18 08:23N 28°08' W 015°25'0 0.0
2017-Jul-18 07:53N 28°08' W 015°25'0 0.0
2017-Jul-18 07:23N 28°08' W 015°25'0 0.0
2017-Jul-18 06:53N 28°08' W 015°25'0 0.0
2017-Jul-18 06:23N 28°08' W 015°25'0 0.0
2017-Jul-18 05:53N 28°08' W 015°25'0 0.0
2017-Jul-18 05:26N 28°08' W 015°25'0 0.0
2017-Jul-18 04:50N 28°08' W 015°25'0 0.0
2017-Jul-18 04:26N 28°08' W 015°25'0 0.0
2017-Jul-18 03:56N 28°08' W 015°25'0 0.0
2017-Jul-18 03:26N 28°08' W 015°25'0 0.0
2017-Jul-18 02:56N 28°08' W 015°25'0 0.0
2017-Jul-18 02:29N 28°08' W 015°25'0 0.0
2017-Jul-18 01:59N 28°08' W 015°25'0 0.0
2017-Jul-18 01:29N 28°08' W 015°25'0 0.0
2017-Jul-18 00:59N 28°08' W 015°25'0 0.0
2017-Jul-18 00:29N 28°08' W 015°25'0 0.0
2017-Jul-17 23:59N 28°08' W 015°25'0 0.0
2017-Jul-17 23:29N 28°08' W 015°25'0 0.0
2017-Jul-17 22:59N 28°08' W 015°25'0 0.0
2017-Jul-17 22:29N 28°08' W 015°25'0 0.0
2017-Jul-17 21:59N 28°08' W 015°25'0 0.0
2017-Jul-17 21:17N 28°08' W 015°25'0 0.0
2017-Jul-17 20:59N 28°08' W 015°25'0 0.0
2017-Jul-17 20:29N 28°08' W 015°25'0 0.0
2017-Jul-17 19:59N 28°08' W 015°25'0 0.0
2017-Jul-17 19:20N 28°08' W 015°25'0 0.0
2017-Jul-17 18:50N 28°08' W 015°25'0 0.0
2017-Jul-17 18:20N 28°08' W 015°25'0 0.0
2017-Jul-17 17:53N 28°08' W 015°25'0 0.0
2017-Jul-17 17:20N 28°08' W 015°25'0 0.0
2017-Jul-17 16:53N 28°08' W 015°25'0 0.0
2017-Jul-17 16:23N 28°08' W 015°25'0 0.0
2017-Jul-17 15:38N 28°08' W 015°25'0 0.0
2017-Jul-17 15:23N 28°08' W 015°25'0 0.0
2017-Jul-17 14:56N 28°08' W 015°25'0 0.0
2017-Jul-17 14:26N 28°08' W 015°25'0 0.0
2017-Jul-17 13:56N 28°08' W 015°25'0 0.0
2017-Jul-17 13:23N 28°08' W 015°25'0 0.0
2017-Jul-17 12:56N 28°08' W 015°25'0 0.0
2017-Jul-17 12:29N 28°08' W 015°25'0 0.0
2017-Jul-17 11:59N 28°08' W 015°25'0 0.0
2017-Jul-17 11:30N 28°08' W 015°25'1 2.6
2017-Jul-17 11:00N 28°07' W 015°24'3 5.5
2017-Jul-17 10:30N 28°05' W 015°22'3 5.9
2017-Jul-17 10:00N 28°03' W 015°21'3 6.2
2017-Jul-17 09:30N 27°60' W 015°19'3 6.0
2017-Jul-17 09:00N 27°57' W 015°17'3 5.8
2017-Jul-17 08:28N 27°54' W 015°17'3 5.9
2017-Jul-17 07:59N 27°51' W 015°17'3 5.8
2017-Jul-17 07:30N 27°49' W 015°17'5 5.7
2017-Jul-17 06:41N 27°44' W 015°18'2 6.1
2017-Jul-17 06:17N 27°42' W 015°19'2 6.2
2017-Jul-17 05:56N 27°40' W 015°19'3 6.0
2017-Jul-17 05:28N 27°37' W 015°20'3 5.6
2017-Jul-17 04:55N 27°34' W 015°21'3 5.5
2017-Jul-17 04:27N 27°31' W 015°21'3 5.3
2017-Jul-17 03:52N 27°28' W 015°23'2 5.2
2017-Jul-17 03:30N 27°27' W 015°24'3 5.6
2017-Jul-17 03:00N 27°24' W 015°25'3 5.8
2017-Jul-17 02:27N 27°21' W 015°26'3 5.9
2017-Jul-17 01:59N 27°18' W 015°26'3 6.1
2017-Jul-17 01:30N 27°16' W 015°27'9 6.2
2017-Jul-17 00:01N 27°07' W 015°30'2 6.4
2017-Jul-16 23:42N 27°05' W 015°31'  

Dump ship's entire track history